Time;durP1;ratioP1;P1;durP2;ratioP2;P2;SDS_P1;SDS_P2;PMS_P1;PMS_P2;Temp;Humidity;BMP_temperature;BMP_pressure;BME280_temperature;BME280_humidity;BME280_pressure;Samples;Min_cycle;Max_cycle;Signal;HPM_P1;HPM_P2
2022/07/08 00:01:08;;;;;;;1.77;1.00;;;;;;;14.30;75.17;99046.50;4952257;29;20043;-86
2022/07/08 00:03:34;;;;;;;0.90;0.80;;;;;;;14.22;76.09;99052.78;4944323;28;20839;-86
2022/07/08 00:06:01;;;;;;;0.80;0.80;;;;;;;14.17;76.09;99037.56;4948000;28;20130;-85
2022/07/08 00:08:30;;;;;;;1.30;0.70;;;;;;;14.31;76.69;99042.84;4952739;28;20124;-86
2022/07/08 00:10:58;;;;;;;1.00;0.90;;;;;;;14.12;76.01;99036.53;4950720;29;20047;-85
2022/07/08 00:13:24;;;;;;;1.77;0.90;;;;;;;14.09;75.98;99045.66;4934023;29;20082;-85
2022/07/08 00:15:51;;;;;;;0.70;0.70;;;;;;;14.05;77.02;99056.81;4944266;29;20510;-86
2022/07/08 00:18:18;;;;;;;0.95;0.90;;;;;;;13.92;75.53;99060.22;4949681;29;20047;-86
2022/07/08 00:20:44;;;;;;;2.03;0.90;;;;;;;13.96;76.09;99071.16;4939271;29;20055;-86
2022/07/08 00:23:11;;;;;;;1.10;1.00;;;;;;;13.82;76.11;99065.03;4941760;29;20398;-85
2022/07/08 00:25:38;;;;;;;1.83;0.90;;;;;;;13.88;76.52;99069.53;4948319;28;20047;-86
2022/07/08 00:28:15;;;;;;;1.15;1.02;;;;;;;13.82;76.79;99065.84;4949494;29;20039;-86
2022/07/08 00:30:41;;;;;;;0.73;0.73;;;;;;;13.72;77.35;99069.84;4949057;28;20103;-86
2022/07/08 00:33:08;;;;;;;1.55;1.00;;;;;;;13.69;76.01;99083.44;4934544;29;20091;-86
2022/07/08 00:35:35;;;;;;;0.90;0.77;;;;;;;13.72;78.13;99075.13;4950615;29;20086;-86
2022/07/08 00:38:02;;;;;;;1.60;0.88;;;;;;;13.75;77.31;99090.56;4943174;28;20039;-86
2022/07/08 00:40:29;;;;;;;0.70;0.70;;;;;;;13.71;77.27;99084.03;4951804;29;20040;-86
2022/07/08 00:42:55;;;;;;;1.92;0.90;;;;;;;13.63;75.39;99080.56;4952658;28;20047;-86
2022/07/08 00:45:22;;;;;;;2.33;0.75;;;;;;;13.60;75.96;99094.13;4950548;29;20047;-86
2022/07/08 00:47:49;;;;;;;1.27;0.90;;;;;;;13.63;75.76;99099.00;4945154;29;20060;-86
2022/07/08 00:50:16;;;;;;;1.70;0.90;;;;;;;13.56;76.68;99084.19;4963343;28;20048;-87
2022/07/08 00:52:44;;;;;;;1.13;0.60;;;;;;;13.60;76.24;99085.41;4944159;29;20043;-85
2022/07/08 00:55:11;;;;;;;1.00;0.73;;;;;;;13.61;78.19;99090.50;4948893;29;20106;-86
2022/07/08 00:57:39;;;;;;;0.80;0.80;;;;;;;13.70;76.14;99092.97;4941978;28;20090;-85
2022/07/08 01:00:07;;;;;;;0.93;0.60;;;;;;;13.69;75.60;99097.44;4952233;28;20102;-86
2022/07/08 01:02:34;;;;;;;0.77;0.63;;;;;;;13.72;76.40;99104.13;4951376;29;20052;-86
2022/07/08 01:05:01;;;;;;;1.58;0.80;;;;;;;13.63;75.61;99101.66;4955173;29;20147;-86
2022/07/08 01:07:28;;;;;;;1.33;0.63;;;;;;;13.60;76.34;99104.66;4937820;29;20047;-85
2022/07/08 01:09:54;;;;;;;0.77;0.77;;;;;;;13.62;76.80;99101.84;4939510;29;20043;-86
2022/07/08 01:12:21;;;;;;;1.98;0.77;;;;;;;13.65;75.27;99104.91;4954310;29;20051;-86
2022/07/08 01:14:48;;;;;;;1.50;0.77;;;;;;;13.55;75.93;99100.97;4961847;28;20083;-86
2022/07/08 01:17:15;;;;;;;1.33;0.80;;;;;;;13.39;76.94;99102.13;4970201;28;20471;-86
2022/07/08 01:19:42;;;;;;;0.88;0.70;;;;;;;13.40;77.60;99103.75;4963104;28;20095;-86
2022/07/08 01:22:08;;;;;;;0.63;0.63;;;;;;;13.37;77.17;99093.56;4953941;29;20047;-86
2022/07/08 01:24:35;;;;;;;0.70;0.70;;;;;;;13.39;76.29;99099.47;4949965;28;20035;-85
2022/07/08 01:27:02;;;;;;;0.70;0.70;;;;;;;13.49;75.83;99120.19;4947919;28;20042;-86
2022/07/08 01:29:29;;;;;;;0.50;0.50;;;;;;;13.47;76.25;99114.31;4954846;29;20582;-86
2022/07/08 01:32:01;;;;;;;1.10;0.60;;;;;;;13.51;76.41;99121.66;4962147;28;20055;-86
2022/07/08 01:34:28;;;;;;;1.23;0.77;;;;;;;13.38;75.81;99127.66;4944740;29;20047;-86
2022/07/08 01:36:54;;;;;;;1.45;0.77;;;;;;;13.35;75.54;99121.94;4947617;29;20047;-86
2022/07/08 01:39:21;;;;;;;2.15;0.90;;;;;;;13.30;76.33;99129.59;4945308;29;20048;-86
2022/07/08 01:41:48;;;;;;;0.65;0.60;;;;;;;13.24;76.15;99122.47;4939516;28;20556;-86
2022/07/08 01:44:14;;;;;;;0.82;0.65;;;;;;;13.35;76.24;99130.66;4950904;29;20051;-86
2022/07/08 01:46:41;;;;;;;0.65;0.65;;;;;;;13.41;75.81;99130.91;4951248;29;20055;-86
2022/07/08 01:49:08;;;;;;;0.63;0.60;;;;;;;13.37;76.33;99125.19;4955032;29;20483;-86
2022/07/08 01:51:35;;;;;;;1.02;0.93;;;;;;;13.46;76.66;99131.16;4951758;28;20047;-86
2022/07/08 01:54:02;;;;;;;0.60;0.60;;;;;;;13.35;76.17;99117.47;4949637;29;20047;-86
2022/07/08 01:56:28;;;;;;;0.60;0.60;;;;;;;13.36;76.18;99105.13;4970638;28;20055;-86
2022/07/08 01:58:55;;;;;;;0.50;0.50;;;;;;;13.38;76.20;99116.31;4949846;28;20087;-86
2022/07/08 02:01:22;;;;;;;0.93;0.70;;;;;;;13.35;74.86;99116.69;4944287;29;20051;-86
2022/07/08 02:03:48;;;;;;;0.65;0.60;;;;;;;13.31;76.04;99115.41;4963045;28;20043;-86
2022/07/08 02:06:15;;;;;;;0.50;0.50;;;;;;;13.37;75.94;99117.28;4948002;29;20054;-86
2022/07/08 02:08:42;;;;;;;1.02;0.80;;;;;;;13.35;75.45;99114.03;4940189;28;20044;-86
2022/07/08 02:13:54;;;;;;;1.25;0.55;;;;;;;13.43;75.86;99113.88;4964771;28;20051;-86
2022/07/08 02:16:20;;;;;;;1.52;0.70;;;;;;;13.41;75.43;99115.91;4954750;28;20055;-86
2022/07/08 02:18:47;;;;;;;1.25;0.70;;;;;;;13.33;75.12;99119.50;4950171;29;20099;-86
2022/07/08 02:21:14;;;;;;;1.52;1.00;;;;;;;13.22;73.44;99121.84;4936403;29;20078;-86
2022/07/08 02:23:40;;;;;;;1.65;0.80;;;;;;;13.17;75.23;99121.56;4954825;29;20097;-86
2022/07/08 02:26:07;;;;;;;0.63;0.60;;;;;;;13.22;76.34;99121.84;4948167;29;20052;-86
2022/07/08 02:28:34;;;;;;;1.45;0.93;;;;;;;13.17;75.96;99116.31;4947015;29;20443;-86
2022/07/08 02:31:00;;;;;;;2.40;0.80;;;;;;;13.21;76.50;99112.31;4952700;29;20051;-85
2022/07/08 02:33:27;;;;;;;1.10;0.70;;;;;;;13.13;76.19;99098.28;4951659;28;20067;-86
2022/07/08 02:35:54;;;;;;;1.33;0.70;;;;;;;13.24;76.50;99115.38;4964908;28;20075;-86
2022/07/08 02:38:21;;;;;;;0.50;0.50;;;;;;;13.30;76.76;99119.06;4951555;29;20060;-86
2022/07/08 02:40:48;;;;;;;0.70;0.70;;;;;;;13.28;76.78;99121.91;4954825;28;20094;-86
2022/07/08 02:43:15;;;;;;;0.45;0.45;;;;;;;13.31;76.22;99115.41;4953402;29;20047;-87
2022/07/08 02:45:41;;;;;;;0.93;0.80;;;;;;;13.34;75.82;99128.22;4951862;29;20051;-86
2022/07/08 02:48:08;;;;;;;1.13;0.80;;;;;;;13.31;76.58;99136.50;4953509;28;20094;-86
2022/07/08 02:50:35;;;;;;;0.52;0.52;;;;;;;13.34;77.10;99136.13;4953226;29;20128;-86
2022/07/08 02:53:01;;;;;;;0.55;0.55;;;;;;;13.41;77.84;99138.81;4957557;28;20463;-86
2022/07/08 02:55:28;;;;;;;0.55;0.55;;;;;;;13.42;77.01;99137.78;4969151;28;20090;-86
2022/07/08 02:57:55;;;;;;;0.50;0.50;;;;;;;13.52;76.99;99154.91;4953144;29;20047;-86
2022/07/08 03:00:22;;;;;;;1.23;0.50;;;;;;;13.56;77.08;99150.06;4942960;29;20052;-86
2022/07/08 03:02:49;;;;;;;0.73;0.73;;;;;;;13.55;76.35;99148.41;4957155;28;20066;-86
2022/07/08 03:05:15;;;;;;;1.50;1.00;;;;;;;13.54;76.78;99141.53;4950627;29;20079;-86
2022/07/08 03:07:42;;;;;;;0.90;0.63;;;;;;;13.53;77.29;99126.72;4958655;28;20440;-86
2022/07/08 03:10:09;;;;;;;2.80;1.10;;;;;;;13.58;75.91;99148.06;4952590;29;20066;-86
2022/07/08 03:12:36;;;;;;;0.60;0.60;;;;;;;13.61;77.03;99145.00;4953725;29;20098;-86
2022/07/08 03:15:03;;;;;;;0.55;0.55;;;;;;;13.61;76.00;99148.50;4949408;29;20475;-86
2022/07/08 03:17:29;;;;;;;0.70;0.70;;;;;;;13.66;75.72;99148.69;4944586;29;20079;-85
2022/07/08 03:19:56;;;;;;;0.50;0.50;;;;;;;13.72;75.74;99148.94;4950146;29;20090;-86
2022/07/08 03:22:23;;;;;;;0.63;0.63;;;;;;;13.79;76.31;99160.31;4950741;28;20146;-87
2022/07/08 03:24:49;;;;;;;1.30;0.60;;;;;;;13.76;75.11;99156.28;4935900;29;20106;-86
2022/07/08 03:27:17;;;;;;;1.30;0.98;;;;;;;13.68;73.25;99153.00;4949770;29;20047;-87
2022/07/08 03:29:44;;;;;;;1.80;0.73;;;;;;;13.69;73.51;99159.88;4940625;29;20044;-86
2022/07/08 03:32:10;;;;;;;1.88;0.85;;;;;;;13.69;75.03;99165.97;4943664;29;20060;-86
2022/07/08 03:34:37;;;;;;;2.13;0.90;;;;;;;13.63;74.14;99161.47;4951942;29;20086;-87
2022/07/08 03:37:04;;;;;;;2.22;1.00;;;;;;;13.49;72.56;99165.81;4942414;29;20075;-87
2022/07/08 03:39:30;;;;;;;1.10;0.88;;;;;;;13.48;74.02;99161.56;4939940;29;20040;-86
2022/07/08 03:41:57;;;;;;;0.70;0.70;;;;;;;13.60;75.26;99167.94;4950346;28;20051;-86
2022/07/08 03:44:24;;;;;;;2.47;1.00;;;;;;;13.58;72.81;99175.22;4955564;28;20380;-87
2022/07/08 03:46:51;;;;;;;1.02;0.82;;;;;;;13.59;72.62;99183.94;4936991;29;20094;-86
2022/07/08 03:49:18;;;;;;;1.35;0.70;;;;;;;13.68;74.18;99180.16;4938922;29;20039;-86
2022/07/08 03:51:45;;;;;;;0.60;0.60;;;;;;;13.72;75.31;99175.31;4949329;28;20052;-85
2022/07/08 03:54:11;;;;;;;1.00;0.90;;;;;;;13.69;75.18;99173.06;4950969;29;20051;-86
2022/07/08 03:56:38;;;;;;;0.70;0.70;;;;;;;13.69;74.59;99178.34;4947940;29;20751;-85
2022/07/08 03:59:05;;;;;;;0.75;0.75;;;;;;;13.76;74.83;99181.81;4951932;28;20047;-86
2022/07/08 04:01:31;;;;;;;0.80;0.80;;;;;;;13.83;75.34;99185.31;4947221;29;20102;-85
2022/07/08 04:03:58;;;;;;;0.60;0.60;;;;;;;13.90;75.75;99178.25;4948161;29;20043;-86
2022/07/08 04:06:25;;;;;;;1.10;0.90;;;;;;;13.81;71.43;99167.06;4946334;28;20039;-86
2022/07/08 04:08:52;;;;;;;2.42;0.88;;;;;;;13.90;71.00;99179.06;4940140;29;20491;-86
2022/07/08 04:11:18;;;;;;;1.10;0.93;;;;;;;13.85;72.54;99170.09;4951738;29;20514;-86
2022/07/08 04:13:45;;;;;;;1.63;0.82;;;;;;;13.87;73.55;99174.19;4942968;28;20126;-86
2022/07/08 04:16:13;;;;;;;0.90;0.88;;;;;;;13.84;71.37;99189.56;4948474;28;20547;-86
2022/07/08 04:18:41;;;;;;;2.30;1.00;;;;;;;13.85;74.45;99181.50;4937031;28;20479;-85
2022/07/08 04:21:09;;;;;;;0.68;0.68;;;;;;;14.10;74.98;99200.28;4948821;28;20043;-86
2022/07/08 04:23:37;;;;;;;0.80;0.75;;;;;;;14.13;72.36;99189.31;4951333;28;20123;-86
2022/07/08 04:26:04;;;;;;;1.23;0.80;;;;;;;14.14;72.09;99203.34;4942383;29;20057;-86
2022/07/08 04:28:31;;;;;;;1.33;0.70;;;;;;;14.15;73.34;99197.03;4949367;29;20047;-87
2022/07/08 04:30:58;;;;;;;1.50;0.80;;;;;;;14.18;72.33;99210.66;4951290;29;20548;-86
2022/07/08 04:33:25;;;;;;;1.98;0.80;;;;;;;14.30;74.88;99208.28;4965732;28;20560;-86
2022/07/08 04:35:52;;;;;;;1.75;0.60;;;;;;;14.41;73.21;99212.19;4934921;29;20078;-86
2022/07/08 04:38:19;;;;;;;1.00;0.57;;;;;;;14.31;74.34;99190.63;4963984;28;20071;-86
2022/07/08 04:40:46;;;;;;;0.60;0.60;;;;;;;14.51;74.36;99209.19;4938782;29;20200;-86
2022/07/08 04:43:13;;;;;;;1.73;0.95;;;;;;;14.58;74.71;99218.78;4947765;29;20048;-85
2022/07/08 04:45:45;;;;;;;1.27;0.75;;;;;;;14.55;73.56;99221.00;4917462;29;20052;-86
2022/07/08 04:48:12;;;;;;;0.75;0.60;;;;;;;14.58;73.40;99224.06;4939527;28;20451;-86
2022/07/08 04:50:39;;;;;;;0.98;0.70;;;;;;;14.62;74.07;99230.56;4943520;29;20040;-86
2022/07/08 04:53:05;;;;;;;0.57;0.57;;;;;;;14.69;75.00;99227.94;4943180;29;20098;-86
2022/07/08 04:55:32;;;;;;;0.70;0.70;;;;;;;14.77;74.49;99232.25;4938122;28;20047;-86
2022/07/08 04:58:03;;;;;;;0.88;0.60;;;;;;;14.87;75.33;99238.78;4947353;29;20055;-85
2022/07/08 05:00:32;;;;;;;0.60;0.60;;;;;;;14.93;74.84;99235.34;4949501;28;20043;-86
2022/07/08 05:03:00;;;;;;;1.50;0.85;;;;;;;14.94;72.97;99238.81;4923880;29;20099;-86
2022/07/08 05:05:27;;;;;;;0.60;0.60;;;;;;;14.90;74.71;99229.66;4935132;29;20472;-86
2022/07/08 05:07:57;;;;;;;0.95;0.73;;;;;;;14.99;75.23;99242.47;4964417;28;20051;-86
2022/07/08 05:10:24;;;;;;;0.65;0.50;;;;;;;15.04;75.51;99241.06;4932600;29;20032;-86
2022/07/08 05:12:52;;;;;;;1.40;0.70;;;;;;;14.99;72.65;99231.91;4937068;29;20052;-86
2022/07/08 05:15:19;;;;;;;0.70;0.70;;;;;;;15.10;74.67;99242.88;4944653;29;20075;-86
2022/07/08 05:17:47;;;;;;;0.60;0.60;;;;;;;15.21;74.28;99252.88;4944025;29;20048;-86
2022/07/08 05:20:16;;;;;;;0.88;0.70;;;;;;;15.31;73.62;99258.59;4956944;28;20048;-86
2022/07/08 05:22:43;;;;;;;0.70;0.70;;;;;;;15.29;72.81;99252.66;4945594;29;20047;-86
2022/07/08 05:25:10;;;;;;;0.63;0.60;;;;;;;15.32;73.43;99256.75;4927829;29;20087;-86
2022/07/08 05:27:56;;;;;;;1.85;0.70;;;;;;;15.40;71.70;99270.56;4945252;29;20054;-86
2022/07/08 05:30:41;;;;;;;1.17;0.80;;;;;;;15.41;72.46;99259.00;4947145;29;20058;-86
2022/07/08 05:33:20;;;;;;;1.85;0.60;;;;;;;15.45;72.22;99256.75;4949376;29;20043;-86
2022/07/08 05:35:47;;;;;;;0.70;0.70;;;;;;;15.61;73.10;99268.78;4947607;28;20047;-85
2022/07/08 05:38:13;;;;;;;0.93;0.82;;;;;;;15.59;69.43;99262.84;4951456;28;20451;-90
2022/07/08 05:40:40;;;;;;;1.17;0.90;;;;;;;15.61;68.66;99272.22;4937169;29;20043;-88
2022/07/08 05:43:07;;;;;;;1.35;0.85;;;;;;;15.52;65.84;99270.78;4939117;29;20066;-89
2022/07/08 05:45:33;;;;;;;2.72;0.82;;;;;;;15.38;67.34;99279.75;4957193;28;20050;-90
2022/07/08 05:48:00;;;;;;;1.27;1.00;;;;;;;15.44;67.01;99285.03;4967110;28;20051;-89
2022/07/08 05:50:27;;;;;;;2.28;0.90;;;;;;;15.54;67.21;99303.16;4945656;29;20117;-89
2022/07/08 05:52:54;;;;;;;1.75;0.82;;;;;;;15.51;66.82;99295.59;4955022;29;20054;-90
2022/07/08 05:55:20;;;;;;;2.05;0.75;;;;;;;15.57;69.96;99301.91;4952794;29;20040;-90
2022/07/08 05:57:47;;;;;;;2.85;0.70;;;;;;;15.65;68.22;99304.38;4945358;29;20480;-88
2022/07/08 06:00:14;;;;;;;2.30;0.70;;;;;;;15.64;66.85;99308.88;4948072;29;20047;-90
2022/07/08 06:02:41;;;;;;;1.58;0.93;;;;;;;15.54;68.24;99311.09;4961332;28;20054;-87
2022/07/08 06:05:08;;;;;;;1.10;0.90;;;;;;;15.59;69.07;99303.34;4948768;29;20047;-89
2022/07/08 06:07:35;;;;;;;1.40;0.95;;;;;;;15.61;70.21;99301.31;4943928;29;20072;-90
2022/07/08 06:10:02;;;;;;;0.95;0.85;;;;;;;15.72;69.51;99308.69;4940163;29;20039;-88
2022/07/08 06:12:28;;;;;;;2.47;0.80;;;;;;;15.52;65.41;99297.22;4958142;28;20047;-91
2022/07/08 06:14:55;;;;;;;2.20;0.93;;;;;;;15.63;66.02;99315.19;4950607;29;20493;-90
2022/07/08 06:17:22;;;;;;;1.58;0.80;;;;;;;15.49;68.11;99302.94;4946861;29;20141;-87
2022/07/08 06:19:48;;;;;;;1.38;0.95;;;;;;;15.50;67.86;99307.22;4960786;28;20035;-88
2022/07/08 06:22:15;;;;;;;1.20;1.08;;;;;;;15.38;64.35;99314.91;4946135;29;20397;-89
2022/07/08 06:24:42;;;;;;;2.60;1.20;;;;;;;15.31;66.44;99313.28;4949003;29;20416;-89
2022/07/08 06:27:24;;;;;;;1.55;0.90;;;;;;;15.44;66.21;99315.94;4944956;29;20043;-88
2022/07/08 06:29:50;;;;;;;1.60;0.95;;;;;;;15.39;64.67;99305.16;4965914;28;20078;-89
2022/07/08 06:32:17;;;;;;;2.42;0.95;;;;;;;15.40;66.73;99306.78;4953290;29;20130;-90
2022/07/08 06:34:46;;;;;;;1.25;0.80;;;;;;;15.45;64.86;99307.00;4954521;29;20051;-89
2022/07/08 06:37:13;;;;;;;3.20;0.80;;;;;;;15.47;66.54;99299.66;4953508;29;20043;-88
2022/07/08 06:39:40;;;;;;;1.90;0.90;;;;;;;15.48;63.64;99318.00;4953499;29;20047;-90
2022/07/08 06:42:07;;;;;;;1.10;0.85;;;;;;;15.54;65.68;99313.72;4950596;29;20047;-88
2022/07/08 06:44:34;;;;;;;1.85;0.95;;;;;;;15.71;66.28;99325.56;4931393;29;20044;-90
2022/07/08 06:47:00;;;;;;;1.30;0.90;;;;;;;15.62;63.63;99321.50;4954392;29;20051;-91
2022/07/08 06:49:27;;;;;;;1.90;0.93;;;;;;;15.69;65.17;99330.22;4952994;29;20050;-89
2022/07/08 06:51:54;;;;;;;1.13;0.80;;;;;;;15.82;66.92;99320.69;4950038;29;20408;-87
2022/07/08 06:54:36;;;;;;;1.73;1.20;;;;;;;15.91;64.61;99325.56;4955431;29;20047;-89
2022/07/08 06:57:07;;;;;;;1.75;0.80;;;;;;;16.17;68.80;99334.50;4935842;29;20151;-88
2022/07/08 06:59:37;;;;;;;3.95;0.98;;;;;;;16.24;64.02;99341.41;4950304;28;20043;-90
2022/07/08 07:02:23;;;;;;;1.80;0.90;;;;;;;16.22;63.17;99348.75;4946812;29;20114;-89
2022/07/08 07:04:50;;;;;;;4.22;1.05;;;;;;;16.28;62.27;99341.81;4952677;28;20188;-90
2022/07/08 07:07:17;;;;;;;4.15;1.20;;;;;;;16.22;60.41;99337.34;4943651;29;20050;-90
2022/07/08 07:09:47;;;;;;;2.15;1.00;;;;;;;16.17;61.15;99335.31;4944413;29;20047;-89
2022/07/08 07:12:15;;;;;;;1.35;0.90;;;;;;;16.05;61.12;99316.59;4949289;29;20087;-90
2022/07/08 07:14:43;;;;;;;2.03;0.90;;;;;;;16.26;62.14;99339.38;4969038;28;20050;-87
2022/07/08 07:17:10;;;;;;;1.85;0.80;;;;;;;16.32;63.20;99358.94;4949872;29;20055;-88
2022/07/08 07:19:37;;;;;;;1.23;0.80;;;;;;;16.36;61.76;99351.38;4924926;29;20134;-89
2022/07/08 07:22:04;;;;;;;3.00;1.15;;;;;;;16.33;62.81;99342.03;4965433;28;20444;-91
2022/07/08 07:24:31;;;;;;;1.13;0.70;;;;;;;16.58;62.40;99360.72;4942419;29;20045;-88
2022/07/08 07:27:09;;;;;;;1.27;0.70;;;;;;;16.85;64.26;99364.13;4963660;28;20051;-87
2022/07/08 07:29:36;;;;;;;2.15;0.70;;;;;;;17.08;61.71;99358.31;4944853;28;20453;-88
2022/07/08 07:32:03;;;;;;;2.00;0.70;;;;;;;17.27;61.01;99346.00;4956540;28;20059;-88
2022/07/08 07:34:30;;;;;;;2.10;0.90;;;;;;;17.48;59.17;99347.50;4919251;29;20559;-92
2022/07/08 07:36:57;;;;;;;1.55;0.80;;;;;;;17.65;60.15;99348.63;4954407;28;20071;-88
2022/07/08 07:39:25;;;;;;;1.95;0.98;;;;;;;17.69;57.37;99349.81;4933783;29;20058;-89
2022/07/08 07:41:52;;;;;;;3.58;0.90;;;;;;;17.58;58.62;99347.88;4943340;29;20085;-89
2022/07/08 07:44:18;;;;;;;2.97;0.90;;;;;;;17.67;57.76;99343.91;4948291;29;20460;-89
2022/07/08 07:46:45;;;;;;;2.28;1.00;;;;;;;17.71;57.67;99336.34;4947960;29;20070;-90
2022/07/08 07:49:13;;;;;;;3.67;1.00;;;;;;;17.82;58.18;99355.06;4949548;28;20058;-88
2022/07/08 07:51:39;;;;;;;2.13;0.93;;;;;;;17.96;56.95;99352.31;4936282;29;20051;-88
2022/07/08 07:54:06;;;;;;;1.40;0.80;;;;;;;18.13;58.25;99340.94;4948489;29;20051;-88
2022/07/08 07:56:33;;;;;;;1.75;1.10;;;;;;;18.43;57.26;99353.53;4951140;29;20051;-90
2022/07/08 07:59:03;;;;;;;1.98;0.82;;;;;;;18.34;55.42;99354.81;4967986;28;20070;-89
2022/07/08 08:01:29;;;;;;;2.80;1.00;;;;;;;18.07;54.23;99335.69;4968136;28;20042;-90
2022/07/08 08:03:56;;;;;;;2.17;0.90;;;;;;;18.11;57.19;99347.47;4951251;29;20118;-92
2022/07/08 08:06:23;;;;;;;3.25;1.00;;;;;;;17.73;54.88;99350.22;4939541;29;20040;-92
2022/07/08 08:08:50;;;;;;;1.60;1.13;;;;;;;17.44;56.55;99356.91;4948256;29;20475;-88
2022/07/08 08:11:17;;;;;;;3.05;1.00;;;;;;;17.37;57.50;99357.75;4944127;28;20046;-92
2022/07/08 08:13:43;;;;;;;4.72;1.20;;;;;;;17.01;57.94;99341.63;4958883;28;20510;-88
2022/07/08 08:16:10;;;;;;;2.10;1.20;;;;;;;16.93;58.39;99342.69;4968379;28;20057;-90
2022/07/08 08:18:38;;;;;;;2.65;1.40;;;;;;;17.57;57.19;99357.66;4933569;29;20043;-88
2022/07/08 08:21:05;;;;;;;1.58;1.10;;;;;;;18.01;58.49;99357.78;4966847;28;20043;-91
2022/07/08 08:23:32;;;;;;;1.48;1.17;;;;;;;18.46;55.79;99367.16;4951344;28;20130;-91
2022/07/08 08:25:59;;;;;;;3.40;1.30;;;;;;;18.77;54.96;99352.13;4948769;28;20407;-88
2022/07/08 08:28:26;;;;;;;2.35;0.90;;;;;;;19.27;52.42;99356.47;4933893;29;20098;-92
2022/07/08 08:30:53;;;;;;;1.40;1.00;;;;;;;18.92;52.64;99362.41;4941011;29;20479;-89
2022/07/08 08:33:20;;;;;;;1.75;1.00;;;;;;;18.68;53.48;99364.91;4972845;28;20095;-90
2022/07/08 08:35:47;;;;;;;2.17;1.00;;;;;;;18.56;54.78;99387.91;4932130;29;20305;-91
2022/07/08 08:38:13;;;;;;;0.90;0.70;;;;;;;18.38;54.63;99371.94;4936798;29;20485;-91
2022/07/08 08:40:42;;;;;;;1.73;0.77;;;;;;;18.31;55.74;99374.66;4962650;28;20048;-90
2022/07/08 08:43:09;;;;;;;2.85;0.90;;;;;;;18.37;55.16;99378.31;4936860;29;20717;-90
2022/07/08 08:45:41;;;;;;;0.85;0.70;;;;;;;18.36;57.86;99377.50;4931268;29;20058;-89
2022/07/08 08:48:11;;;;;;;2.35;1.15;;;;;;;18.42;55.60;99381.94;4933364;28;20048;-90
2022/07/08 08:50:56;;;;;;;1.15;0.80;;;;;;;18.35;54.85;99383.84;4966923;28;20091;-90
2022/07/08 08:53:41;;;;;;;2.15;0.88;;;;;;;18.21;56.35;99371.69;4943549;29;20054;-89
2022/07/08 08:56:13;;;;;;;1.15;0.80;;;;;;;18.25;57.65;99394.13;4938046;29;20179;-90
2022/07/08 08:58:46;;;;;;;1.13;0.80;;;;;;;18.18;54.89;99377.44;4942894;29;20345;-89
2022/07/08 09:01:18;;;;;;;1.33;0.90;;;;;;;18.28;54.95;99385.72;4958387;28;20059;-90
2022/07/08 09:03:46;;;;;;;2.00;1.05;;;;;;;18.43;53.07;99394.16;4941947;28;20455;-88
2022/07/08 09:06:14;;;;;;;1.85;0.82;;;;;;;18.44;52.68;99392.31;4947108;29;20707;-89
2022/07/08 09:08:40;;;;;;;0.63;0.60;;;;;;;18.72;54.19;99386.56;4943658;29;20052;-90
2022/07/08 09:11:08;;;;;;;1.17;0.70;;;;;;;18.90;59.78;99388.41;4951446;28;20040;-89
2022/07/08 09:13:35;;;;;;;1.95;0.82;;;;;;;18.77;52.45;99362.78;4951826;28;20048;-88
2022/07/08 09:16:08;;;;;;;1.98;0.90;;;;;;;18.66;53.40;99388.22;4949187;28;20046;-90
2022/07/08 09:18:38;;;;;;;2.35;1.00;;;;;;;18.87;53.95;99386.19;4933317;29;20056;-89
2022/07/08 09:21:07;;;;;;;2.13;1.02;;;;;;;18.98;54.03;99390.75;4963912;28;20539;-90
2022/07/08 09:23:38;;;;;;;1.35;0.85;;;;;;;19.31;55.07;99394.84;4956432;28;20424;-90
2022/07/08 09:26:10;;;;;;;1.50;0.82;;;;;;;19.84;51.50;99371.00;4939525;29;20053;-88
2022/07/08 09:28:44;;;;;;;0.90;0.70;;;;;;;20.22;50.98;99385.78;4947504;29;20047;-89
2022/07/08 09:31:13;;;;;;;1.15;0.80;;;;;;;20.43;48.51;99393.16;4954151;29;20472;-90
2022/07/08 09:33:42;;;;;;;2.13;0.90;;;;;;;20.26;47.38;99386.91;4970620;28;20067;-88
2022/07/08 09:36:10;;;;;;;1.02;0.85;;;;;;;20.07;50.47;99385.41;4954470;29;20043;-88
2022/07/08 09:38:40;;;;;;;2.00;0.70;;;;;;;20.14;49.17;99394.09;4959399;28;20055;-90
2022/07/08 09:41:12;;;;;;;1.10;0.60;;;;;;;20.20;49.37;99383.31;4954912;28;20407;-89
2022/07/08 09:43:45;;;;;;;1.25;0.80;;;;;;;20.46;51.05;99374.09;4950054;29;20051;-89
2022/07/08 09:46:13;;;;;;;1.58;0.93;;;;;;;20.69;47.03;99369.78;4947128;29;20385;-89
2022/07/08 09:48:39;;;;;;;1.65;0.80;;;;;;;20.95;46.33;99361.28;4938541;29;20142;-89
2022/07/08 09:51:09;;;;;;;0.70;0.70;;;;;;;20.97;50.51;99377.84;4954967;29;20043;-89
2022/07/08 09:53:39;;;;;;;0.75;0.75;;;;;;;20.87;47.54;99372.31;4947392;29;20039;-89
2022/07/08 09:56:08;;;;;;;1.87;0.87;;;;;;;20.79;49.91;99360.13;4940519;29;20420;-88
2022/07/08 09:58:36;;;;;;;1.05;0.90;;;;;;;20.60;47.99;99349.88;4969366;28;20307;-88
2022/07/08 10:01:04;;;;;;;1.55;0.98;;;;;;;20.41;47.92;99357.97;4954359;29;20086;-88
2022/07/08 10:03:32;;;;;;;2.63;1.10;;;;;;;20.05;47.38;99357.16;4948806;29;20094;-89
2022/07/08 10:06:01;;;;;;;2.78;1.00;;;;;;;19.81;47.57;99362.66;4944922;28;20052;-91
2022/07/08 10:08:28;;;;;;;1.10;0.80;;;;;;;19.79;46.92;99370.88;4964597;28;20095;-88
2022/07/08 10:11:00;;;;;;;1.92;1.00;;;;;;;19.81;48.64;99374.13;4959369;28;20059;-88
2022/07/08 10:13:28;;;;;;;0.80;0.80;;;;;;;19.71;53.76;99369.34;4950089;29;20102;-89
2022/07/08 10:15:58;;;;;;;0.70;0.70;;;;;;;19.80;49.48;99361.88;4950381;29;20523;-90
2022/07/08 10:18:38;;;;;;;1.85;0.88;;;;;;;19.85;49.07;99369.97;4959878;28;20043;-90
2022/07/08 10:21:07;;;;;;;1.50;0.90;;;;;;;19.72;47.59;99373.63;4953841;29;20043;-88
2022/07/08 10:23:51;;;;;;;2.58;1.35;;;;;;;19.78;49.64;99382.56;4953907;29;20102;-88
2022/07/08 10:26:31;;;;;;;3.42;1.08;;;;;;;19.93;51.69;99382.94;4934215;29;20370;-90
2022/07/08 10:29:06;;;;;;;3.03;0.90;;;;;;;20.08;47.46;99369.19;4950760;29;20051;-90
2022/07/08 10:31:51;;;;;;;1.98;1.05;;;;;;;20.28;48.13;99377.66;4955361;28;20488;-91
2022/07/08 10:34:42;;;;;;;1.33;1.02;;;;;;;20.44;48.29;99362.00;4936908;29;20053;-90
2022/07/08 10:37:10;;;;;;;1.13;0.80;;;;;;;20.35;46.90;99380.22;4938491;29;20173;-89
2022/07/08 10:39:43;;;;;;;0.93;0.82;;;;;;;20.21;47.44;99362.81;4958182;28;20613;-89
2022/07/08 10:42:10;;;;;;;1.10;0.80;;;;;;;20.39;48.74;99378.72;4965436;28;20039;-89
2022/07/08 10:44:49;;;;;;;1.00;0.82;;;;;;;20.55;50.25;99370.03;4945279;28;20615;-89
2022/07/08 10:47:23;;;;;;;1.13;0.77;;;;;;;20.53;45.93;99364.13;4944221;29;20062;-89
2022/07/08 10:49:51;;;;;;;1.15;0.77;;;;;;;20.44;49.50;99352.16;4964988;28;20047;-91
2022/07/08 10:52:21;;;;;;;0.70;0.70;;;;;;;20.63;46.69;99362.72;4955327;28;20046;-90
2022/07/08 10:55:16;;;;;;;0.50;0.50;;;;;;;20.90;45.00;99361.16;4955431;28;20051;-89
2022/07/08 10:57:58;;;;;;;1.27;0.82;;;;;;;20.81;45.87;99363.41;4953808;29;20142;-89
2022/07/08 11:00:26;;;;;;;1.60;0.98;;;;;;;20.62;47.09;99358.44;4963420;28;20090;-89
2022/07/08 11:02:53;;;;;;;1.83;0.77;;;;;;;20.81;46.84;99363.41;4950730;29;20047;-88
2022/07/08 11:05:40;;;;;;;1.20;0.85;;;;;;;21.34;47.65;99361.50;4949483;29;20523;-90
2022/07/08 11:08:20;;;;;;;1.45;1.05;;;;;;;21.19;48.22;99353.19;4971439;28;20046;-88
2022/07/08 11:10:49;;;;;;;1.02;0.60;;;;;;;21.26;47.31;99359.19;4927955;29;20500;-89
2022/07/08 11:13:23;;;;;;;1.48;0.70;;;;;;;21.57;47.72;99365.91;4939398;29;20047;-90
2022/07/08 11:15:50;;;;;;;1.38;0.90;;;;;;;21.65;46.52;99360.19;4939311;29;20079;-88
2022/07/08 11:18:22;;;;;;;0.68;0.65;;;;;;;21.56;45.16;99365.13;4956531;28;20134;-88
2022/07/08 11:20:56;;;;;;;1.38;0.60;;;;;;;21.66;50.65;99371.69;4946336;29;20127;-88
2022/07/08 11:23:23;;;;;;;1.75;0.82;;;;;;;21.35;46.75;99355.94;4946636;29;20636;-87
2022/07/08 11:25:57;;;;;;;1.27;0.80;;;;;;;21.03;47.93;99349.41;4934694;29;20522;-88
2022/07/08 11:28:24;;;;;;;1.42;0.80;;;;;;;20.68;48.10;99362.81;4948164;28;20487;-87
2022/07/08 11:30:53;;;;;;;3.47;1.00;;;;;;;20.48;49.45;99358.69;4979163;28;20050;-89
2022/07/08 11:33:38;;;;;;;1.05;0.82;;;;;;;20.46;50.84;99352.78;4948531;29;20039;-92
2022/07/08 11:36:19;;;;;;;1.05;0.80;;;;;;;20.65;49.58;99364.13;4935539;29;20047;-92
2022/07/08 11:38:47;;;;;;;;;;;;;;;20.66;48.09;99363.06;4946455;29;20116;-91
2022/07/08 11:41:15;;;;;;;0.93;0.70;;;;;;;20.68;50.91;99363.63;4930882;29;20324;-91
2022/07/08 11:43:44;;;;;;;0.85;0.60;;;;;;;20.87;50.59;99364.31;4950231;29;20063;-88